createdAt,value
2022-12-06T00:02:29.369Z,99328.09
2022-12-06T00:05:01.490Z,99321.78
2022-12-06T00:07:33.582Z,99321.88
2022-12-06T00:10:05.995Z,99317.72
2022-12-06T00:12:37.633Z,99323.81
2022-12-06T00:15:09.577Z,99314.97
2022-12-06T00:17:43.142Z,99317.44
2022-12-06T00:20:14.901Z,99321.91
2022-12-06T00:22:46.598Z,99324.25
2022-12-06T00:25:18.182Z,99320.09
2022-12-06T00:27:50.575Z,99323.53
2022-12-06T00:30:22.222Z,99312.66
2022-12-06T00:32:54.013Z,99316.91
2022-12-06T00:35:25.616Z,99312.91
2022-12-06T00:37:57.173Z,99308.94
2022-12-06T00:40:28.887Z,99304.38
2022-12-06T00:43:00.468Z,99305.47
2022-12-06T00:45:33.461Z,99304.06
2022-12-06T00:48:05.232Z,99305.59
2022-12-06T00:50:36.938Z,99304.06
2022-12-06T00:53:08.602Z,99304.91
2022-12-06T00:55:40.433Z,99303.94
2022-12-06T00:58:15.904Z,99297.72
2022-12-06T01:00:48.056Z,99290.97
2022-12-06T01:03:20.770Z,99301.31
2022-12-06T01:05:52.518Z,99298.41
2022-12-06T01:08:24.443Z,99303.53
2022-12-06T01:10:56.083Z,99302.16
2022-12-06T01:13:27.818Z,99290.00
2022-12-06T01:16:12.326Z,99297.72
2022-12-06T01:18:45.346Z,99297.72
2022-12-06T01:21:18.771Z,99288.06
2022-12-06T01:23:51.005Z,99294.16
2022-12-06T01:26:40.727Z,99294.84
2022-12-06T01:29:12.291Z,99291.53
2022-12-06T01:31:43.843Z,99289.19
2022-12-06T01:34:17.018Z,99280.91
2022-12-06T01:36:49.616Z,99287.81
2022-12-06T01:39:21.495Z,99284.78
2022-12-06T01:41:53.132Z,99285.19
2022-12-06T01:44:48.858Z,99277.47
2022-12-06T01:47:33.562Z,99276.66
2022-12-06T01:50:11.871Z,99273.06
2022-12-06T01:52:53.561Z,99272.78
2022-12-06T01:55:30.093Z,99269.59
2022-12-06T01:58:07.871Z,99271.25
2022-12-06T02:00:39.538Z,99270.56
2022-12-06T02:03:19.028Z,99269.75
2022-12-06T02:05:53.338Z,99261.19
2022-12-06T02:08:25.959Z,99269.59
2022-12-06T02:10:59.143Z,99261.34
2022-12-06T02:13:33.600Z,99265.63
2022-12-06T02:16:15.602Z,99250.03
2022-12-06T02:18:56.397Z,99259.16
2022-12-06T02:21:40.989Z,99249.50
2022-12-06T02:24:51.031Z,99247.97
2022-12-06T02:27:40.553Z,99240.94
2022-12-06T02:30:31.749Z,99236.81
2022-12-06T02:33:27.624Z,99239.31
2022-12-06T02:36:15.296Z,99244.00
2022-12-06T02:38:59.982Z,99246.06
2022-12-06T02:41:40.190Z,99236.97
2022-12-06T02:44:19.561Z,99239.03
2022-12-06T02:46:59.735Z,99246.06
2022-12-06T02:49:35.026Z,99248.94
2022-12-06T02:52:06.775Z,99242.22
2022-12-06T02:54:40.357Z,99252.81
2022-12-06T02:57:11.990Z,99249.38
2022-12-06T02:59:54.327Z,99246.63
2022-12-06T03:02:26.254Z,99247.59
2022-12-06T03:05:21.742Z,99253.22
2022-12-06T03:07:53.754Z,99259.84
2022-12-06T03:10:49.409Z,99256.81
2022-12-06T03:13:29.819Z,99246.63
2022-12-06T03:16:26.546Z,99242.34
2022-12-06T03:19:06.454Z,99245.34
2022-12-06T03:21:46.907Z,99245.34
2022-12-06T03:24:21.905Z,99243.00
2022-12-06T03:26:56.578Z,99250.69
2022-12-06T03:29:31.758Z,99238.03
2022-12-06T03:32:06.375Z,99244.50
2022-12-06T03:34:46.654Z,99250.13
2022-12-06T03:37:22.414Z,99243.69
2022-12-06T03:40:24.386Z,99246.00
2022-12-06T03:42:56.851Z,99233.06
2022-12-06T03:45:37.214Z,99250.13
2022-12-06T03:48:14.609Z,99249.88
2022-12-06T03:50:57.040Z,99253.97
2022-12-06T03:53:32.938Z,99249.56
2022-12-06T03:56:04.761Z,99238.72
2022-12-06T03:58:36.711Z,99249.44
2022-12-06T04:01:08.304Z,99245.75
2022-12-06T04:03:40.086Z,99251.66
2022-12-06T04:06:12.254Z,99251.13
2022-12-06T04:08:43.944Z,99252.78
2022-12-06T04:11:15.589Z,99260.50
2022-12-06T04:13:47.180Z,99256.09
2022-12-06T04:16:37.260Z,99252.13
2022-12-06T04:19:08.895Z,99256.94
2022-12-06T04:21:58.733Z,99261.88
2022-12-06T04:24:30.653Z,99267.41
2022-12-06T04:27:20.835Z,99258.00
2022-12-06T04:30:11.026Z,99261.44
2022-12-06T04:33:01.212Z,99271.47
2022-12-06T04:35:51.501Z,99266.63
2022-12-06T04:38:41.538Z,99267.88
2022-12-06T04:41:34.357Z,99268.41
2022-12-06T04:44:06.841Z,99264.13
2022-12-06T04:46:38.878Z,99271.00
2022-12-06T04:49:10.564Z,99261.50
2022-12-06T04:51:42.397Z,99273.03
2022-12-06T04:54:14.171Z,99258.88
2022-12-06T04:56:47.877Z,99258.88
2022-12-06T04:59:20.160Z,99260.50
2022-12-06T05:01:52.503Z,99264.31
2022-12-06T05:04:24.247Z,99262.81
2022-12-06T05:06:55.918Z,99262.28
2022-12-06T05:09:27.735Z,99273.88
2022-12-06T05:11:59.405Z,99262.75
2022-12-06T05:14:31.038Z,99264.53
2022-12-06T05:17:03.535Z,99264.13
2022-12-06T05:19:35.149Z,99252.59
2022-12-06T05:22:06.777Z,99258.78
2022-12-06T05:24:38.447Z,99260.88
2022-12-06T05:27:10.025Z,99259.75
2022-12-06T05:29:42.276Z,99261.00
2022-12-06T05:32:13.820Z,99262.09
2022-12-06T05:34:45.450Z,99264.00
2022-12-06T05:37:17.242Z,99263.59
2022-12-06T05:39:51.649Z,99265.13
2022-12-06T05:42:23.244Z,99263.19
2022-12-06T05:44:54.801Z,99267.06
2022-12-06T05:47:26.384Z,99263.91
2022-12-06T05:49:58.181Z,99268.59
2022-12-06T05:52:30.052Z,99271.19
2022-12-06T05:55:01.675Z,99267.75
2022-12-06T05:57:33.665Z,99263.28
2022-12-06T06:00:05.976Z,99263.38
2022-12-06T06:02:38.434Z,99259.41
2022-12-06T06:05:10.348Z,99263.84
2022-12-06T06:07:44.023Z,99252.00
2022-12-06T06:10:17.907Z,99256.16
2022-12-06T06:12:49.740Z,99250.53
2022-12-06T06:15:21.490Z,99256.47
2022-12-06T06:17:53.182Z,99254.25
2022-12-06T06:20:24.811Z,99240.91
2022-12-06T06:22:56.444Z,99246.28
2022-12-06T06:25:28.160Z,99249.03
2022-12-06T06:27:59.760Z,99250.13
2022-12-06T06:30:31.426Z,99250.28
2022-12-06T06:33:03.212Z,99249.97
2022-12-06T06:35:34.871Z,99251.88
2022-12-06T06:38:06.796Z,99254.72
2022-12-06T06:40:38.474Z,99251.03
2022-12-06T06:43:20.163Z,99260.66
2022-12-06T06:46:03.649Z,99255.56
2022-12-06T06:48:38.182Z,99257.63
2022-12-06T06:51:12.691Z,99258.00
2022-12-06T06:53:44.368Z,99263.22
2022-12-06T06:56:16.359Z,99258.84
2022-12-06T06:58:48.540Z,99254.19
2022-12-06T07:01:22.666Z,99255.56
2022-12-06T07:03:54.408Z,99252.41
2022-12-06T07:06:26.088Z,99257.22
2022-12-06T07:09:00.632Z,99263.53
2022-12-06T07:11:32.524Z,99259.28
2022-12-06T07:14:04.372Z,99260.50
2022-12-06T07:16:37.362Z,99266.25
2022-12-06T07:19:09.293Z,99265.69
2022-12-06T07:21:41.100Z,99270.41
2022-12-06T07:24:15.597Z,99274.28
2022-12-06T07:26:47.367Z,99273.44
2022-12-06T07:29:18.990Z,99267.25
2022-12-06T07:31:50.662Z,99264.13
2022-12-06T07:34:23.833Z,99268.63
2022-12-06T07:36:55.889Z,99269.75
2022-12-06T07:39:27.501Z,99267.38
2022-12-06T07:42:17.902Z,99273.44
2022-12-06T07:45:03.374Z,99270.00
2022-12-06T07:47:37.683Z,99273.00
2022-12-06T07:50:18.223Z,99265.56
2022-12-06T07:52:50.756Z,99264.59
2022-12-06T07:55:22.367Z,99268.75
2022-12-06T07:57:54.236Z,99265.00
2022-12-06T08:00:26.168Z,99264.13
2022-12-06T08:03:00.845Z,99265.72
2022-12-06T08:05:32.591Z,99265.81
2022-12-06T08:08:04.438Z,99265.13
2022-12-06T08:10:36.656Z,99256.47
2022-12-06T08:13:08.341Z,99263.72
2022-12-06T08:15:40.208Z,99256.25
2022-12-06T08:18:12.101Z,99262.19
2022-12-06T08:20:43.870Z,99257.94
2022-12-06T08:23:15.485Z,99258.88
2022-12-06T08:25:47.219Z,99252.81
2022-12-06T08:28:18.846Z,99247.34
2022-12-06T08:30:51.555Z,99244.34
2022-12-06T08:33:23.510Z,99255.34
2022-12-06T08:35:55.357Z,99253.31
2022-12-06T08:38:28.504Z,99244.38
2022-12-06T08:41:00.159Z,99245.78
2022-12-06T08:43:32.434Z,99242.91
2022-12-06T08:46:04.151Z,99245.28
2022-12-06T08:48:41.277Z,99240.84
2022-12-06T08:51:14.543Z,99239.22
2022-12-06T08:53:46.192Z,99241.84
2022-12-06T08:56:17.834Z,99238.94
2022-12-06T08:58:50.746Z,99244.88
2022-12-06T09:01:25.858Z,99240.31
2022-12-06T09:04:01.555Z,99239.25
2022-12-06T09:06:35.924Z,99237.19
2022-12-06T09:09:09.140Z,99242.03
2022-12-06T09:11:40.976Z,99244.13
2022-12-06T09:14:21.060Z,99232.97
2022-12-06T09:16:53.454Z,99238.91
2022-12-06T09:19:25.155Z,99242.06
2022-12-06T09:21:56.923Z,99246.75
2022-12-06T09:24:28.786Z,99236.59
2022-12-06T09:27:00.498Z,99251.44
2022-12-06T09:29:34.894Z,99241.78
2022-12-06T09:32:10.573Z,99235.59
2022-12-06T09:34:42.217Z,99232.84
2022-12-06T09:37:14.191Z,99241.00
2022-12-06T09:39:51.528Z,99240.03
2022-12-06T09:43:14.670Z,99240.47
2022-12-06T09:46:11.414Z,99235.78
2022-12-06T09:49:29.928Z,99228.34
2022-12-06T09:52:01.631Z,99220.25
2022-12-06T09:54:53.498Z,99212.13
2022-12-06T09:58:02.010Z,99219.56
2022-12-06T10:01:02.579Z,99217.09
2022-12-06T10:03:59.013Z,99210.75
2022-12-06T10:06:50.488Z,99200.84
2022-12-06T10:09:32.841Z,99200.84
2022-12-06T10:12:19.345Z,99201.25
2022-12-06T10:14:50.907Z,99192.31
2022-12-06T10:17:52.425Z,99188.72
2022-12-06T10:20:40.993Z,99177.56
2022-12-06T10:23:22.582Z,99177.03
2022-12-06T10:26:13.176Z,99173.44
2022-12-06T10:29:04.691Z,99166.13
2022-12-06T10:31:50.990Z,99164.91
2022-12-06T10:35:00.564Z,99158.44
2022-12-06T10:37:43.528Z,99158.56
2022-12-06T10:40:24.683Z,99150.53
2022-12-06T10:43:26.809Z,99146.22
2022-12-06T10:46:27.418Z,99146.88
2022-12-06T10:49:24.006Z,99141.47
2022-12-06T10:52:24.847Z,99143.13
2022-12-06T10:55:02.261Z,99131.25
2022-12-06T10:58:11.497Z,99144.75
2022-12-06T11:01:13.370Z,99136.63
2022-12-06T11:03:56.200Z,99136.50
2022-12-06T11:06:34.755Z,99140.31
2022-12-06T11:09:12.364Z,99134.84
2022-12-06T11:11:44.916Z,99139.22
2022-12-06T11:14:48.064Z,99125.97
2022-12-06T11:17:24.777Z,99130.06
2022-12-06T11:20:14.935Z,99124.56
2022-12-06T11:23:06.715Z,99123.28
2022-12-06T11:26:05.786Z,99120.66
2022-12-06T11:28:44.832Z,99109.50
2022-12-06T11:31:30.716Z,99112.66
2022-12-06T11:34:04.244Z,99121.63
2022-12-06T11:36:38.407Z,99125.53
2022-12-06T11:39:15.790Z,99124.03
2022-12-06T11:41:53.173Z,99120.84
2022-12-06T11:45:01.091Z,99122.56
2022-12-06T11:47:32.920Z,99118.69
2022-12-06T11:50:16.795Z,99123.94
2022-12-06T11:52:55.894Z,99109.19
2022-12-06T11:55:36.833Z,99117.88
2022-12-06T11:58:11.412Z,99108.63
2022-12-06T12:01:09.993Z,99117.88
2022-12-06T12:03:47.423Z,99117.63
2022-12-06T12:06:27.349Z,99116.28
2022-12-06T12:09:06.285Z,99107.59
2022-12-06T12:11:40.315Z,99116.16
2022-12-06T12:14:18.847Z,99106.75
2022-12-06T12:16:55.310Z,99109.53
2022-12-06T12:19:39.063Z,99112.69
2022-12-06T12:22:37.036Z,99106.50
2022-12-06T12:25:43.995Z,99109.38
2022-12-06T12:28:27.183Z,99098.75
2022-12-06T12:31:08.416Z,99099.19
2022-12-06T12:33:40.043Z,99095.06
2022-12-06T12:36:32.295Z,99094.22
2022-12-06T12:39:04.003Z,99092.06
2022-12-06T12:41:42.872Z,99093.72
2022-12-06T12:44:37.609Z,99094.28
2022-12-06T12:47:20.161Z,99094.53
2022-12-06T12:50:14.426Z,99103.09
2022-12-06T12:52:47.071Z,99096.50
2022-12-06T12:55:21.993Z,99093.19
2022-12-06T12:57:54.779Z,99089.59
2022-12-06T13:00:32.359Z,99094.41
2022-12-06T13:03:28.589Z,99096.47
2022-12-06T13:06:04.166Z,99093.72
2022-12-06T13:08:38.013Z,99091.78
2022-12-06T13:11:10.940Z,99092.06
2022-12-06T13:13:50.216Z,99094.41
2022-12-06T13:16:33.984Z,99090.00
2022-12-06T13:19:25.740Z,99086.41
2022-12-06T13:21:59.713Z,99094.97
2022-12-06T13:24:37.591Z,99088.59
2022-12-06T13:27:16.339Z,99085.03
2022-12-06T13:30:03.860Z,99081.81
2022-12-06T13:32:41.529Z,99072.69
2022-12-06T13:35:33.994Z,99076.84
2022-12-06T13:38:22.702Z,99079.47
2022-12-06T13:41:02.541Z,99073.53
2022-12-06T13:43:39.950Z,99075.50
2022-12-06T13:46:26.382Z,99077.13
2022-12-06T13:49:00.628Z,99070.38
2022-12-06T13:51:34.518Z,99074.34
2022-12-06T13:54:06.064Z,99072.44
2022-12-06T13:56:40.016Z,99070.91
2022-12-06T13:59:11.767Z,99071.47
2022-12-06T14:01:46.019Z,99071.31
2022-12-06T14:07:23.456Z,99077.81
2022-12-06T14:09:55.164Z,99065.28
2022-12-06T14:12:28.535Z,99067.63
2022-12-06T14:15:05.985Z,99066.50
2022-12-06T14:20:35.480Z,99068.28
2022-12-06T14:23:27.427Z,99070.91
2022-12-06T14:26:24.235Z,99076.00
2022-12-06T14:28:58.430Z,99069.81
2022-12-06T14:31:40.110Z,99072.69
2022-12-06T14:34:29.925Z,99065.41
2022-12-06T14:37:11.716Z,99064.59
2022-12-06T14:39:51.180Z,99061.97
2022-12-06T14:42:41.305Z,99063.63
2022-12-06T14:45:16.219Z,99069.00
2022-12-06T14:47:49.205Z,99065.28
2022-12-06T14:50:29.199Z,99064.59
2022-12-06T14:53:12.385Z,99059.66
2022-12-06T14:56:30.779Z,99060.34
2022-12-06T14:59:10.674Z,99063.50
2022-12-06T15:01:50.808Z,99056.16
2022-12-06T15:04:39.985Z,99061.13
2022-12-06T15:07:31.510Z,99056.41
2022-12-06T15:10:20.828Z,99061.81
2022-12-06T15:12:55.511Z,99057.53
2022-12-06T15:15:46.044Z,99064.72
2022-12-06T15:18:25.184Z,99053.94
2022-12-06T15:20:56.867Z,99061.81
2022-12-06T15:23:40.801Z,99056.41
2022-12-06T15:26:13.087Z,99062.22
2022-12-06T15:28:44.923Z,99061.41
2022-12-06T15:31:22.800Z,99058.50
2022-12-06T15:33:55.523Z,99051.91
2022-12-06T15:36:30.995Z,99057.81
2022-12-06T15:39:02.715Z,99062.78
2022-12-06T15:41:34.329Z,99059.78
2022-12-06T15:44:06.246Z,99051.22
2022-12-06T15:46:38.023Z,99055.91
2022-12-06T15:49:14.852Z,99055.09
2022-12-06T15:51:49.820Z,99054.66
2022-12-06T15:54:26.550Z,99051.09
2022-12-06T15:56:58.147Z,99052.03
2022-12-06T15:59:29.873Z,99054.38
2022-12-06T16:02:01.633Z,99045.53
2022-12-06T16:04:35.029Z,99055.31
2022-12-06T16:07:06.888Z,99056.16
2022-12-06T16:09:41.372Z,99040.59
2022-12-06T16:12:13.027Z,99050.53
2022-12-06T16:14:44.775Z,99053.28
2022-12-06T16:17:16.484Z,99057.72
2022-12-06T16:20:06.684Z,99053.59
2022-12-06T16:22:56.696Z,99053.44
2022-12-06T16:25:28.275Z,99052.19
2022-12-06T16:28:02.872Z,99048.59
2022-12-06T16:30:35.450Z,99052.88
2022-12-06T16:33:07.866Z,99050.66
2022-12-06T16:35:39.537Z,99050.66
2022-12-06T16:38:15.885Z,99045.97
2022-12-06T16:40:50.425Z,99044.84
2022-12-06T16:43:22.101Z,99048.22
2022-12-06T16:45:55.961Z,99045.34
2022-12-06T16:48:27.622Z,99047.25
2022-12-06T16:50:59.165Z,99050.44
2022-12-06T16:53:30.752Z,99049.44
2022-12-06T16:56:02.301Z,99055.25
2022-12-06T16:58:34.176Z,99045.16
2022-12-06T17:01:39.625Z,99042.66
2022-12-06T17:04:11.820Z,99039.78
2022-12-06T17:06:43.557Z,99043.88
2022-12-06T17:09:15.751Z,99048.28
2022-12-06T17:12:05.883Z,99044.06
2022-12-06T17:14:38.821Z,99040.16
2022-12-06T17:17:16.070Z,99045.16
2022-12-06T17:19:48.744Z,99042.41
2022-12-06T17:22:20.431Z,99043.06
2022-12-06T17:24:52.260Z,99037.53
2022-12-06T17:27:26.977Z,99037.16
2022-12-06T17:29:58.707Z,99037.00
2022-12-06T17:32:30.597Z,99038.81
2022-12-06T17:35:05.172Z,99039.59
2022-12-06T17:37:37.092Z,99035.13
2022-12-06T17:40:09.239Z,99043.09
2022-12-06T17:42:59.642Z,99040.03
2022-12-06T17:45:31.341Z,99046.03
2022-12-06T17:48:03.086Z,99042.03
2022-12-06T17:50:37.635Z,99039.53
2022-12-06T17:53:10.229Z,99045.91
2022-12-06T17:55:41.933Z,99038.88
2022-12-06T17:58:15.910Z,99042.31
2022-12-06T18:00:47.635Z,99039.53
2022-12-06T18:03:19.291Z,99041.19
2022-12-06T18:05:50.971Z,99037.91
2022-12-06T18:08:22.667Z,99038.75
2022-12-06T18:10:58.437Z,99035.00
2022-12-06T18:13:33.353Z,99041.06
2022-12-06T18:16:15.443Z,99044.25
2022-12-06T18:18:48.773Z,99050.03
2022-12-06T18:21:28.849Z,99042.16
2022-12-06T18:24:20.904Z,99047.41
2022-12-06T18:26:54.479Z,99045.78
2022-12-06T18:29:26.138Z,99050.31
2022-12-06T18:31:57.844Z,99048.81
2022-12-06T18:34:29.741Z,99042.72
2022-12-06T18:37:01.411Z,99040.13
2022-12-06T18:39:32.996Z,99043.88
2022-12-06T18:42:04.801Z,99047.75
2022-12-06T18:44:36.551Z,99047.06
2022-12-06T18:47:08.221Z,99045.41
2022-12-06T18:49:43.018Z,99048.56
2022-12-06T18:52:14.519Z,99043.59
2022-12-06T18:54:46.155Z,99045.13
2022-12-06T18:57:17.932Z,99042.66
2022-12-06T18:59:49.642Z,99042.25
2022-12-06T19:02:21.552Z,99041.94
2022-12-06T19:04:53.268Z,99037.41
2022-12-06T19:07:25.194Z,99040.03
2022-12-06T19:09:57.003Z,99051.84
2022-12-06T19:12:28.983Z,99046.34
2022-12-06T19:15:00.644Z,99047.44
2022-12-06T19:17:33.592Z,99054.34
2022-12-06T19:20:05.955Z,99052.00
2022-12-06T19:22:37.822Z,99053.94
2022-12-06T19:25:10.282Z,99053.41
2022-12-06T19:27:41.859Z,99059.50
2022-12-06T19:30:13.826Z,99058.41
2022-12-06T19:32:45.441Z,99057.88
2022-12-06T19:35:17.261Z,99061.44
2022-12-06T19:37:49.006Z,99065.44
2022-12-06T19:40:20.617Z,99059.78
2022-12-06T19:43:10.912Z,99063.94
2022-12-06T19:45:42.709Z,99059.91
2022-12-06T19:48:14.663Z,99058.69
2022-12-06T19:50:46.353Z,99057.88
2022-12-06T19:53:21.288Z,99063.41
2022-12-06T19:55:55.573Z,99066.00
2022-12-06T19:58:27.645Z,99067.50
2022-12-06T20:00:59.351Z,99062.84
2022-12-06T20:03:31.026Z,99063.09
2022-12-06T20:06:08.646Z,99067.38
2022-12-06T20:08:40.717Z,99079.63
2022-12-06T20:11:33.309Z,99074.00
2022-12-06T20:14:13.852Z,99076.88
2022-12-06T20:16:46.231Z,99066.72
2022-12-06T20:19:18.571Z,99077.56
2022-12-06T20:21:50.706Z,99070.00
2022-12-06T20:24:23.279Z,99071.94
2022-12-06T20:26:55.728Z,99071.94
2022-12-06T20:29:29.925Z,99079.25
2022-12-06T20:32:04.482Z,99073.19
2022-12-06T20:34:36.234Z,99070.28
2022-12-06T20:37:07.826Z,99068.34
2022-12-06T20:39:39.384Z,99069.31
2022-12-06T20:42:14.072Z,99068.91
2022-12-06T20:44:45.663Z,99068.91
2022-12-06T20:47:18.028Z,99065.19
2022-12-06T20:49:49.770Z,99066.81
2022-12-06T20:52:24.684Z,99063.94
2022-12-06T20:54:56.119Z,99063.94
2022-12-06T20:57:27.661Z,99067.38
2022-12-06T21:00:05.278Z,99059.53
2022-12-06T21:02:38.945Z,99064.63
2022-12-06T21:05:10.602Z,99069.88
2022-12-06T21:07:42.338Z,99067.81
2022-12-06T21:10:14.081Z,99067.66
2022-12-06T21:12:45.656Z,99066.81
2022-12-06T21:15:17.357Z,99069.75
2022-12-06T21:17:48.903Z,99061.88
2022-12-06T21:20:20.644Z,99073.06
2022-12-06T21:22:52.272Z,99072.50
2022-12-06T21:25:23.966Z,99062.72
2022-12-06T21:27:55.608Z,99067.13
2022-12-06T21:30:29.261Z,99072.22
2022-12-06T21:33:02.046Z,99072.22
2022-12-06T21:35:37.559Z,99069.59
2022-12-06T21:38:09.306Z,99067.53
2022-12-06T21:40:41.272Z,99070.84
2022-12-06T21:43:12.991Z,99072.19
2022-12-06T21:45:45.053Z,99073.03
2022-12-06T21:48:16.647Z,99075.78
2022-12-06T21:50:48.296Z,99074.94
2022-12-06T21:53:19.934Z,99080.47
2022-12-06T21:55:51.583Z,99081.88
2022-12-06T21:58:23.350Z,99086.53
2022-12-06T22:00:55.078Z,99084.91
2022-12-06T22:03:26.727Z,99082.41
2022-12-06T22:05:58.506Z,99078.16
2022-12-06T22:08:30.145Z,99083.09
2022-12-06T22:11:13.480Z,99082.28
2022-12-06T22:13:46.304Z,99081.47
2022-12-06T22:16:19.214Z,99084.47
2022-12-06T22:18:54.837Z,99085.28
2022-12-06T22:21:29.374Z,99085.44
2022-12-06T22:24:01.068Z,99085.69
2022-12-06T22:26:32.754Z,99089.84
2022-12-06T22:29:04.394Z,99084.47
2022-12-06T22:31:36.166Z,99083.66
2022-12-06T22:34:11.885Z,99078.53
2022-12-06T22:36:43.686Z,99085.31
2022-12-06T22:39:15.306Z,99070.56
2022-12-06T22:41:46.887Z,99078.16
2022-12-06T22:44:19.504Z,99075.53
2022-12-06T22:46:51.480Z,99076.50
2022-12-06T22:49:23.119Z,99077.75
2022-12-06T22:51:54.707Z,99084.63
2022-12-06T22:54:26.295Z,99085.72
2022-12-06T22:56:57.977Z,99082.28
2022-12-06T22:59:29.571Z,99078.56
2022-12-06T23:02:01.312Z,99074.41
2022-12-06T23:04:33.006Z,99078.28
2022-12-06T23:07:04.662Z,99081.72
2022-12-06T23:09:36.391Z,99083.63
2022-12-06T23:12:08.058Z,99082.84
2022-12-06T23:14:39.706Z,99075.00
2022-12-06T23:17:11.333Z,99077.59
2022-12-06T23:19:42.924Z,99073.03
2022-12-06T23:22:14.596Z,99073.47
2022-12-06T23:24:49.204Z,99077.03
2022-12-06T23:27:20.965Z,99075.38
2022-12-06T23:29:52.624Z,99071.28
2022-12-06T23:32:24.292Z,99071.53
2022-12-06T23:34:56.147Z,99069.06
2022-12-06T23:37:27.771Z,99064.50
2022-12-06T23:39:59.593Z,99068.66
2022-12-06T23:42:31.541Z,99071.41
2022-12-06T23:45:03.262Z,99069.88
2022-12-06T23:47:34.872Z,99068.09
2022-12-06T23:50:07.132Z,99070.44
2022-12-06T23:52:38.872Z,99069.22
2022-12-06T23:55:10.486Z,99069.59
2022-12-06T23:57:42.218Z,99070.44
